Strona główna
METAR-TAF:

METAR-TAF

Lotnisko :

Valence, Francja

Szerokość geograficzna: 44-54-58N, Długość geograficzna: 4-58-06E, wysokość: 160 m

Aktualna obserwacja pogody

Raport powstał 10 godziny i 16 minut temu, godzina 18:00 UTC
Wiatr 8 kt od północ
Temperatura 3°C
Wilgotność 81%
Ciśnienie 1023 hPa
Widzialność 10 km lub więcej
Brak chmur poniżej 1500 m i brak chmur cumulonimbus

METAR: LFLU 101800Z AUTO 01008KT CAVOK 03/00 Q1023

czas: 05:16 (04:16 UTC)


TAF: brakujący

Obserwacja i prognoza pogody dla ponad 4000 lotnisk (raport METAR i TAF).

Dostępne stacje oznaczono żółtymi i czerwonymi punktami na mapie.

Najedź kursorem aby zobaczyć nazwę stacji.

Kliknij aby zobaczyć obserwacje i prognozy pogody.

Aby zmienić mapę: kliknij na zielony przycisk z czarnym krzyżykiem, aby powiększyć; na zielony przycisk z myślnikiem, aby pomniejszyć; na zielone strzałki, aby przejść do map sąsiednich.


METAR-TAF: